TAFOR
Diposting tanggal: 10 Juni 2019

Pukul : 00 - 12 UTC

Isi :

TAF WAGI 272300Z 2800/2812 13005KT 9999 SCT012 TEMPO 2806/2808 4000 -RA BKN012=